sensor_id;sensor_type;location;lat;lon;timestamp;P1;durP1;ratioP1;P2;durP2;ratioP2
24034;SDS011;12242;50.952;4.678;2023-04-24T00:01:55;14.10;;;6.43;;
24034;SDS011;12242;50.952;4.678;2023-04-24T00:04:25;16.35;;;6.43;;
24034;SDS011;12242;50.952;4.678;2023-04-24T00:06:53;11.82;;;6.47;;
24034;SDS011;12242;50.952;4.678;2023-04-24T00:09:24;14.68;;;7.15;;
24034;SDS011;12242;50.952;4.678;2023-04-24T00:11:52;12.55;;;5.80;;
24034;SDS011;12242;50.952;4.678;2023-04-24T00:14:20;17.85;;;6.93;;
24034;SDS011;12242;50.952;4.678;2023-04-24T00:16:57;17.00;;;6.75;;
24034;SDS011;12242;50.952;4.678;2023-04-24T00:19:45;13.43;;;6.65;;
24034;SDS011;12242;50.952;4.678;2023-04-24T00:22:17;15.35;;;6.80;;
24034;SDS011;12242;50.952;4.678;2023-04-24T00:24:45;18.88;;;6.80;;
24034;SDS011;12242;50.952;4.678;2023-04-24T00:27:13;14.70;;;6.85;;
24034;SDS011;12242;50.952;4.678;2023-04-24T00:29:46;16.15;;;6.40;;
24034;SDS011;12242;50.952;4.678;2023-04-24T00:32:14;14.38;;;6.82;;
24034;SDS011;12242;50.952;4.678;2023-04-24T00:34:42;21.23;;;6.22;;
24034;SDS011;12242;50.952;4.678;2023-04-24T00:37:10;14.98;;;7.13;;
24034;SDS011;12242;50.952;4.678;2023-04-24T00:39:38;15.98;;;6.45;;
24034;SDS011;12242;50.952;4.678;2023-04-24T00:42:06;15.57;;;6.35;;
24034;SDS011;12242;50.952;4.678;2023-04-24T00:45:08;14.82;;;6.15;;
24034;SDS011;12242;50.952;4.678;2023-04-24T00:47:36;16.58;;;6.07;;
24034;SDS011;12242;50.952;4.678;2023-04-24T00:50:04;13.35;;;6.43;;
24034;SDS011;12242;50.952;4.678;2023-04-24T00:52:33;13.27;;;6.28;;
24034;SDS011;12242;50.952;4.678;2023-04-24T00:55:01;15.90;;;6.85;;
24034;SDS011;12242;50.952;4.678;2023-04-24T00:57:30;11.73;;;6.20;;
24034;SDS011;12242;50.952;4.678;2023-04-24T00:59:57;14.82;;;6.25;;
24034;SDS011;12242;50.952;4.678;2023-04-24T01:02:25;15.00;;;6.38;;
24034;SDS011;12242;50.952;4.678;2023-04-24T01:04:53;18.73;;;6.70;;
24034;SDS011;12242;50.952;4.678;2023-04-24T01:07:21;13.43;;;5.95;;
24034;SDS011;12242;50.952;4.678;2023-04-24T01:09:49;12.15;;;5.63;;
24034;SDS011;12242;50.952;4.678;2023-04-24T01:12:18;14.18;;;6.25;;
24034;SDS011;12242;50.952;4.678;2023-04-24T01:14:46;14.57;;;5.72;;
24034;SDS011;12242;50.952;4.678;2023-04-24T01:17:14;15.20;;;7.28;;
24034;SDS011;12242;50.952;4.678;2023-04-24T01:19:42;18.65;;;8.00;;
24034;SDS011;12242;50.952;4.678;2023-04-24T01:22:14;17.08;;;6.80;;
24034;SDS011;12242;50.952;4.678;2023-04-24T01:24:43;15.07;;;6.00;;
24034;SDS011;12242;50.952;4.678;2023-04-24T01:27:11;19.50;;;6.78;;
24034;SDS011;12242;50.952;4.678;2023-04-24T01:29:39;14.80;;;6.20;;
24034;SDS011;12242;50.952;4.678;2023-04-24T01:32:07;14.73;;;6.68;;
24034;SDS011;12242;50.952;4.678;2023-04-24T01:34:35;18.58;;;6.38;;
24034;SDS011;12242;50.952;4.678;2023-04-24T01:37:04;18.20;;;6.28;;
24034;SDS011;12242;50.952;4.678;2023-04-24T01:39:44;12.07;;;6.03;;
24034;SDS011;12242;50.952;4.678;2023-04-24T01:42:12;14.93;;;5.95;;
24034;SDS011;12242;50.952;4.678;2023-04-24T01:44:40;15.48;;;6.20;;
24034;SDS011;12242;50.952;4.678;2023-04-24T01:47:08;16.83;;;6.10;;
24034;SDS011;12242;50.952;4.678;2023-04-24T01:49:37;15.20;;;6.47;;
24034;SDS011;12242;50.952;4.678;2023-04-24T01:52:07;14.43;;;6.00;;
24034;SDS011;12242;50.952;4.678;2023-04-24T01:54:34;14.27;;;6.18;;
24034;SDS011;12242;50.952;4.678;2023-04-24T01:57:02;15.00;;;6.25;;
24034;SDS011;12242;50.952;4.678;2023-04-24T01:59:30;14.57;;;5.70;;
24034;SDS011;12242;50.952;4.678;2023-04-24T02:02:00;15.18;;;5.82;;
24034;SDS011;12242;50.952;4.678;2023-04-24T02:04:28;11.57;;;5.63;;
24034;SDS011;12242;50.952;4.678;2023-04-24T02:06:56;12.18;;;5.25;;
24034;SDS011;12242;50.952;4.678;2023-04-24T02:09:23;12.63;;;5.07;;
24034;SDS011;12242;50.952;4.678;2023-04-24T02:11:51;10.40;;;4.80;;
24034;SDS011;12242;50.952;4.678;2023-04-24T02:14:19;8.77;;;4.25;;
24034;SDS011;12242;50.952;4.678;2023-04-24T02:16:47;10.38;;;4.40;;
24034;SDS011;12242;50.952;4.678;2023-04-24T02:19:15;7.22;;;3.65;;
24034;SDS011;12242;50.952;4.678;2023-04-24T02:21:42;10.50;;;4.22;;
24034;SDS011;12242;50.952;4.678;2023-04-24T02:24:10;13.07;;;4.60;;
24034;SDS011;12242;50.952;4.678;2023-04-24T02:26:38;11.52;;;4.22;;
24034;SDS011;12242;50.952;4.678;2023-04-24T02:29:05;10.18;;;4.28;;
24034;SDS011;12242;50.952;4.678;2023-04-24T02:31:33;10.73;;;4.40;;
24034;SDS011;12242;50.952;4.678;2023-04-24T02:34:01;10.52;;;4.75;;
24034;SDS011;12242;50.952;4.678;2023-04-24T02:36:29;8.60;;;3.92;;
24034;SDS011;12242;50.952;4.678;2023-04-24T02:38:57;12.15;;;5.43;;
24034;SDS011;12242;50.952;4.678;2023-04-24T02:41:24;13.60;;;5.30;;
24034;SDS011;12242;50.952;4.678;2023-04-24T02:43:59;13.40;;;5.40;;
24034;SDS011;12242;50.952;4.678;2023-04-24T02:46:27;11.45;;;5.32;;
24034;SDS011;12242;50.952;4.678;2023-04-24T02:48:54;10.35;;;5.25;;
24034;SDS011;12242;50.952;4.678;2023-04-24T02:51:22;12.80;;;5.85;;
24034;SDS011;12242;50.952;4.678;2023-04-24T02:53:50;13.05;;;5.45;;
24034;SDS011;12242;50.952;4.678;2023-04-24T02:56:18;12.45;;;5.85;;
24034;SDS011;12242;50.952;4.678;2023-04-24T02:58:45;12.02;;;6.03;;
24034;SDS011;12242;50.952;4.678;2023-04-24T03:01:13;12.98;;;5.55;;
24034;SDS011;12242;50.952;4.678;2023-04-24T03:03:41;11.90;;;5.35;;
24034;SDS011;12242;50.952;4.678;2023-04-24T03:06:09;10.77;;;5.72;;
24034;SDS011;12242;50.952;4.678;2023-04-24T03:08:37;12.68;;;5.10;;
24034;SDS011;12242;50.952;4.678;2023-04-24T03:11:05;14.68;;;6.25;;
24034;SDS011;12242;50.952;4.678;2023-04-24T03:13:32;11.07;;;5.10;;
24034;SDS011;12242;50.952;4.678;2023-04-24T03:16:00;11.15;;;5.43;;
24034;SDS011;12242;50.952;4.678;2023-04-24T03:18:28;12.35;;;5.72;;
24034;SDS011;12242;50.952;4.678;2023-04-24T03:20:55;11.45;;;5.53;;
24034;SDS011;12242;50.952;4.678;2023-04-24T03:23:23;13.05;;;5.85;;
24034;SDS011;12242;50.952;4.678;2023-04-24T03:25:51;13.07;;;6.30;;
24034;SDS011;12242;50.952;4.678;2023-04-24T03:28:19;13.68;;;5.68;;
24034;SDS011;12242;50.952;4.678;2023-04-24T03:30:46;12.45;;;5.40;;
24034;SDS011;12242;50.952;4.678;2023-04-24T03:33:14;12.05;;;5.90;;
24034;SDS011;12242;50.952;4.678;2023-04-24T03:35:42;12.70;;;5.60;;
24034;SDS011;12242;50.952;4.678;2023-04-24T03:38:09;13.02;;;6.05;;
24034;SDS011;12242;50.952;4.678;2023-04-24T03:40:37;15.70;;;5.72;;
24034;SDS011;12242;50.952;4.678;2023-04-24T03:43:05;12.73;;;6.10;;
24034;SDS011;12242;50.952;4.678;2023-04-24T03:45:33;9.38;;;5.15;;
24034;SDS011;12242;50.952;4.678;2023-04-24T03:48:00;12.32;;;5.47;;
24034;SDS011;12242;50.952;4.678;2023-04-24T03:50:28;8.98;;;4.93;;
24034;SDS011;12242;50.952;4.678;2023-04-24T03:52:56;9.65;;;4.50;;
24034;SDS011;12242;50.952;4.678;2023-04-24T03:55:23;10.77;;;5.05;;
24034;SDS011;12242;50.952;4.678;2023-04-24T03:57:51;11.35;;;5.38;;
24034;SDS011;12242;50.952;4.678;2023-04-24T04:00:19;11.93;;;4.50;;
24034;SDS011;12242;50.952;4.678;2023-04-24T04:02:47;13.90;;;4.78;;
24034;SDS011;12242;50.952;4.678;2023-04-24T04:05:15;11.27;;;3.88;;
24034;SDS011;12242;50.952;4.678;2023-04-24T04:07:43;10.18;;;3.88;;
24034;SDS011;12242;50.952;4.678;2023-04-24T04:10:10;9.38;;;4.00;;
24034;SDS011;12242;50.952;4.678;2023-04-24T04:12:38;9.82;;;3.58;;
24034;SDS011;12242;50.952;4.678;2023-04-24T04:15:06;7.85;;;3.15;;
24034;SDS011;12242;50.952;4.678;2023-04-24T04:17:34;12.10;;;3.63;;
24034;SDS011;12242;50.952;4.678;2023-04-24T04:20:01;7.78;;;3.22;;
24034;SDS011;12242;50.952;4.678;2023-04-24T04:22:36;6.78;;;2.80;;
24034;SDS011;12242;50.952;4.678;2023-04-24T04:25:03;9.98;;;3.40;;
24034;SDS011;12242;50.952;4.678;2023-04-24T04:27:31;8.60;;;3.80;;
24034;SDS011;12242;50.952;4.678;2023-04-24T04:29:59;9.60;;;3.55;;
24034;SDS011;12242;50.952;4.678;2023-04-24T04:32:31;7.60;;;3.55;;
24034;SDS011;12242;50.952;4.678;2023-04-24T04:35:00;7.70;;;3.40;;
24034;SDS011;12242;50.952;4.678;2023-04-24T04:37:30;8.30;;;3.20;;
24034;SDS011;12242;50.952;4.678;2023-04-24T04:39:58;9.82;;;3.38;;
24034;SDS011;12242;50.952;4.678;2023-04-24T04:42:26;10.25;;;3.20;;
24034;SDS011;12242;50.952;4.678;2023-04-24T04:44:55;8.82;;;3.65;;
24034;SDS011;12242;50.952;4.678;2023-04-24T04:47:24;7.50;;;3.10;;
24034;SDS011;12242;50.952;4.678;2023-04-24T04:49:52;7.38;;;2.85;;
24034;SDS011;12242;50.952;4.678;2023-04-24T04:52:19;9.35;;;3.65;;
24034;SDS011;12242;50.952;4.678;2023-04-24T04:54:51;7.13;;;3.42;;
24034;SDS011;12242;50.952;4.678;2023-04-24T04:57:19;9.00;;;3.42;;
24034;SDS011;12242;50.952;4.678;2023-04-24T04:59:47;9.93;;;4.22;;
24034;SDS011;12242;50.952;4.678;2023-04-24T05:02:14;9.30;;;4.40;;
24034;SDS011;12242;50.952;4.678;2023-04-24T05:04:42;11.90;;;4.60;;
24034;SDS011;12242;50.952;4.678;2023-04-24T05:07:10;12.05;;;4.72;;
24034;SDS011;12242;50.952;4.678;2023-04-24T05:09:38;12.35;;;5.78;;
24034;SDS011;12242;50.952;4.678;2023-04-24T05:12:06;14.68;;;5.75;;
24034;SDS011;12242;50.952;4.678;2023-04-24T05:14:34;12.57;;;5.45;;
24034;SDS011;12242;50.952;4.678;2023-04-24T05:17:02;11.10;;;5.22;;
24034;SDS011;12242;50.952;4.678;2023-04-24T05:19:29;14.35;;;4.85;;
24034;SDS011;12242;50.952;4.678;2023-04-24T05:21:59;13.95;;;5.93;;
24034;SDS011;12242;50.952;4.678;2023-04-24T05:24:30;15.90;;;6.25;;
24034;SDS011;12242;50.952;4.678;2023-04-24T05:26:58;11.63;;;5.95;;
24034;SDS011;12242;50.952;4.678;2023-04-24T05:29:26;14.07;;;6.00;;
24034;SDS011;12242;50.952;4.678;2023-04-24T05:31:53;14.07;;;5.85;;
24034;SDS011;12242;50.952;4.678;2023-04-24T05:34:21;15.95;;;6.00;;
24034;SDS011;12242;50.952;4.678;2023-04-24T05:36:49;13.98;;;5.30;;
24034;SDS011;12242;50.952;4.678;2023-04-24T05:39:17;14.18;;;5.18;;
24034;SDS011;12242;50.952;4.678;2023-04-24T05:41:45;10.40;;;5.10;;
24034;SDS011;12242;50.952;4.678;2023-04-24T05:44:12;13.20;;;5.35;;
24034;SDS011;12242;50.952;4.678;2023-04-24T05:46:40;14.32;;;5.10;;
24034;SDS011;12242;50.952;4.678;2023-04-24T05:49:08;14.95;;;6.45;;
24034;SDS011;12242;50.952;4.678;2023-04-24T05:51:35;13.13;;;6.20;;
24034;SDS011;12242;50.952;4.678;2023-04-24T05:54:03;15.70;;;5.45;;
24034;SDS011;12242;50.952;4.678;2023-04-24T05:56:30;14.85;;;5.20;;
24034;SDS011;12242;50.952;4.678;2023-04-24T05:58:58;16.50;;;5.00;;
24034;SDS011;12242;50.952;4.678;2023-04-24T06:01:25;12.70;;;5.35;;
24034;SDS011;12242;50.952;4.678;2023-04-24T06:03:53;12.43;;;5.55;;
24034;SDS011;12242;50.952;4.678;2023-04-24T06:06:21;18.17;;;5.53;;
24034;SDS011;12242;50.952;4.678;2023-04-24T06:08:49;11.40;;;5.28;;
24034;SDS011;12242;50.952;4.678;2023-04-24T06:11:16;16.05;;;5.20;;
24034;SDS011;12242;50.952;4.678;2023-04-24T06:13:44;18.83;;;5.30;;
24034;SDS011;12242;50.952;4.678;2023-04-24T06:16:12;12.38;;;5.43;;
24034;SDS011;12242;50.952;4.678;2023-04-24T06:18:40;10.65;;;4.88;;
24034;SDS011;12242;50.952;4.678;2023-04-24T06:21:07;12.75;;;5.03;;
24034;SDS011;12242;50.952;4.678;2023-04-24T06:23:35;10.82;;;5.50;;
24034;SDS011;12242;50.952;4.678;2023-04-24T06:26:02;17.73;;;5.32;;
24034;SDS011;12242;50.952;4.678;2023-04-24T06:28:30;11.80;;;5.13;;
24034;SDS011;12242;50.952;4.678;2023-04-24T06:30:58;10.32;;;4.78;;
24034;SDS011;12242;50.952;4.678;2023-04-24T06:33:25;15.05;;;5.72;;
24034;SDS011;12242;50.952;4.678;2023-04-24T06:35:53;12.02;;;5.78;;
24034;SDS011;12242;50.952;4.678;2023-04-24T06:38:20;11.88;;;5.72;;
24034;SDS011;12242;50.952;4.678;2023-04-24T06:40:48;16.15;;;6.22;;
24034;SDS011;12242;50.952;4.678;2023-04-24T06:43:15;13.00;;;5.63;;
24034;SDS011;12242;50.952;4.678;2023-04-24T06:45:43;14.45;;;5.80;;
24034;SDS011;12242;50.952;4.678;2023-04-24T06:48:11;15.25;;;6.65;;
24034;SDS011;12242;50.952;4.678;2023-04-24T06:50:38;16.00;;;5.93;;
24034;SDS011;12242;50.952;4.678;2023-04-24T06:53:06;13.75;;;6.03;;
24034;SDS011;12242;50.952;4.678;2023-04-24T06:55:35;13.85;;;6.60;;
24034;SDS011;12242;50.952;4.678;2023-04-24T06:58:02;16.40;;;7.07;;
24034;SDS011;12242;50.952;4.678;2023-04-24T07:00:30;17.88;;;6.22;;
24034;SDS011;12242;50.952;4.678;2023-04-24T07:02:58;13.55;;;6.03;;
24034;SDS011;12242;50.952;4.678;2023-04-24T07:05:26;18.88;;;7.07;;
24034;SDS011;12242;50.952;4.678;2023-04-24T07:07:53;15.93;;;6.90;;
24034;SDS011;12242;50.952;4.678;2023-04-24T07:10:21;20.23;;;6.72;;
24034;SDS011;12242;50.952;4.678;2023-04-24T07:12:48;21.52;;;6.97;;
24034;SDS011;12242;50.952;4.678;2023-04-24T07:15:16;18.50;;;7.25;;
24034;SDS011;12242;50.952;4.678;2023-04-24T07:17:43;21.08;;;7.40;;
24034;SDS011;12242;50.952;4.678;2023-04-24T07:20:11;15.52;;;7.28;;
24034;SDS011;12242;50.952;4.678;2023-04-24T07:22:41;20.15;;;7.20;;
24034;SDS011;12242;50.952;4.678;2023-04-24T07:25:08;21.92;;;7.20;;
24034;SDS011;12242;50.952;4.678;2023-04-24T07:27:36;22.65;;;6.78;;
24034;SDS011;12242;50.952;4.678;2023-04-24T07:30:04;13.75;;;5.97;;
24034;SDS011;12242;50.952;4.678;2023-04-24T07:32:33;14.27;;;5.10;;
24034;SDS011;12242;50.952;4.678;2023-04-24T07:35:01;15.93;;;5.72;;
24034;SDS011;12242;50.952;4.678;2023-04-24T07:37:29;16.58;;;6.70;;
24034;SDS011;12242;50.952;4.678;2023-04-24T07:39:57;15.35;;;5.07;;
24034;SDS011;12242;50.952;4.678;2023-04-24T07:42:25;8.10;;;4.07;;
24034;SDS011;12242;50.952;4.678;2023-04-24T07:44:52;13.50;;;4.35;;
24034;SDS011;12242;50.952;4.678;2023-04-24T07:47:20;13.70;;;4.88;;
24034;SDS011;12242;50.952;4.678;2023-04-24T07:49:47;11.85;;;4.75;;
24034;SDS011;12242;50.952;4.678;2023-04-24T07:52:15;11.70;;;3.83;;
24034;SDS011;12242;50.952;4.678;2023-04-24T07:54:42;12.20;;;3.47;;
24034;SDS011;12242;50.952;4.678;2023-04-24T07:57:10;9.75;;;3.63;;
24034;SDS011;12242;50.952;4.678;2023-04-24T07:59:38;12.07;;;3.65;;
24034;SDS011;12242;50.952;4.678;2023-04-24T08:02:06;7.53;;;2.88;;
24034;SDS011;12242;50.952;4.678;2023-04-24T08:04:33;9.18;;;2.88;;
24034;SDS011;12242;50.952;4.678;2023-04-24T08:07:01;9.75;;;2.63;;
24034;SDS011;12242;50.952;4.678;2023-04-24T08:09:29;10.13;;;2.80;;
24034;SDS011;12242;50.952;4.678;2023-04-24T08:11:56;9.43;;;2.63;;
24034;SDS011;12242;50.952;4.678;2023-04-24T08:14:24;10.95;;;2.50;;
24034;SDS011;12242;50.952;4.678;2023-04-24T08:16:53;7.13;;;2.20;;
24034;SDS011;12242;50.952;4.678;2023-04-24T08:19:26;7.50;;;2.45;;
24034;SDS011;12242;50.952;4.678;2023-04-24T08:21:53;9.07;;;2.80;;
24034;SDS011;12242;50.952;4.678;2023-04-24T08:24:21;13.00;;;3.13;;
24034;SDS011;12242;50.952;4.678;2023-04-24T08:26:49;11.88;;;4.10;;
24034;SDS011;12242;50.952;4.678;2023-04-24T08:29:18;10.32;;;3.95;;
24034;SDS011;12242;50.952;4.678;2023-04-24T08:31:45;12.80;;;3.88;;
24034;SDS011;12242;50.952;4.678;2023-04-24T08:34:13;17.45;;;4.20;;
24034;SDS011;12242;50.952;4.678;2023-04-24T08:36:41;12.75;;;3.97;;
24034;SDS011;12242;50.952;4.678;2023-04-24T08:39:13;12.35;;;3.97;;
24034;SDS011;12242;50.952;4.678;2023-04-24T08:41:42;11.35;;;3.78;;
24034;SDS011;12242;50.952;4.678;2023-04-24T08:44:10;13.20;;;3.47;;
24034;SDS011;12242;50.952;4.678;2023-04-24T08:46:39;6.38;;;2.90;;
24034;SDS011;12242;50.952;4.678;2023-04-24T08:49:08;9.18;;;2.90;;
24034;SDS011;12242;50.952;4.678;2023-04-24T08:51:36;10.18;;;2.83;;
24034;SDS011;12242;50.952;4.678;2023-04-24T08:54:04;5.63;;;2.53;;
24034;SDS011;12242;50.952;4.678;2023-04-24T08:56:34;9.18;;;2.70;;
24034;SDS011;12242;50.952;4.678;2023-04-24T08:59:06;6.57;;;2.58;;
24034;SDS011;12242;50.952;4.678;2023-04-24T09:01:33;10.23;;;2.83;;
24034;SDS011;12242;50.952;4.678;2023-04-24T09:04:04;5.43;;;2.45;;
24034;SDS011;12242;50.952;4.678;2023-04-24T09:06:35;8.43;;;2.45;;
24034;SDS011;12242;50.952;4.678;2023-04-24T09:09:03;5.85;;;2.50;;
24034;SDS011;12242;50.952;4.678;2023-04-24T09:11:31;10.35;;;2.83;;
24034;SDS011;12242;50.952;4.678;2023-04-24T09:14:02;11.15;;;2.30;;
24034;SDS011;12242;50.952;4.678;2023-04-24T09:16:30;10.52;;;2.70;;
24034;SDS011;12242;50.952;4.678;2023-04-24T09:19:02;7.25;;;2.70;;
24034;SDS011;12242;50.952;4.678;2023-04-24T09:21:33;11.38;;;2.78;;
24034;SDS011;12242;50.952;4.678;2023-04-24T09:24:03;6.72;;;2.50;;
24034;SDS011;12242;50.952;4.678;2023-04-24T09:26:34;9.35;;;2.40;;
24034;SDS011;12242;50.952;4.678;2023-04-24T09:29:03;8.45;;;2.60;;
24034;SDS011;12242;50.952;4.678;2023-04-24T09:31:31;7.53;;;2.42;;
24034;SDS011;12242;50.952;4.678;2023-04-24T09:34:01;9.35;;;2.75;;
24034;SDS011;12242;50.952;4.678;2023-04-24T09:36:38;7.43;;;2.50;;
24034;SDS011;12242;50.952;4.678;2023-04-24T09:39:08;12.00;;;2.95;;
24034;SDS011;12242;50.952;4.678;2023-04-24T09:41:46;6.03;;;2.70;;
24034;SDS011;12242;50.952;4.678;2023-04-24T09:44:25;8.15;;;2.95;;
24034;SDS011;12242;50.952;4.678;2023-04-24T09:46:55;8.50;;;3.00;;
24034;SDS011;12242;50.952;4.678;2023-04-24T09:49:30;10.45;;;3.00;;
24034;SDS011;12242;50.952;4.678;2023-04-24T09:52:06;7.95;;;2.45;;
24034;SDS011;12242;50.952;4.678;2023-04-24T09:54:36;5.45;;;2.33;;
24034;SDS011;12242;50.952;4.678;2023-04-24T09:57:06;5.20;;;2.40;;
24034;SDS011;12242;50.952;4.678;2023-04-24T09:59:38;6.63;;;2.40;;
24034;SDS011;12242;50.952;4.678;2023-04-24T10:02:17;7.15;;;2.30;;
24034;SDS011;12242;50.952;4.678;2023-04-24T10:04:55;5.22;;;2.05;;
24034;SDS011;12242;50.952;4.678;2023-04-24T10:07:26;5.82;;;2.17;;
24034;SDS011;12242;50.952;4.678;2023-04-24T10:09:54;8.00;;;2.17;;
24034;SDS011;12242;50.952;4.678;2023-04-24T10:12:22;4.53;;;1.67;;
24034;SDS011;12242;50.952;4.678;2023-04-24T10:14:51;6.05;;;1.92;;
24034;SDS011;12242;50.952;4.678;2023-04-24T10:17:20;5.60;;;1.85;;
24034;SDS011;12242;50.952;4.678;2023-04-24T10:19:48;4.38;;;1.60;;
24034;SDS011;12242;50.952;4.678;2023-04-24T10:22:16;6.22;;;1.70;;
24034;SDS011;12242;50.952;4.678;2023-04-24T10:24:44;4.03;;;1.27;;
24034;SDS011;12242;50.952;4.678;2023-04-24T10:27:14;5.97;;;1.98;;
24034;SDS011;12242;50.952;4.678;2023-04-24T10:29:43;8.13;;;1.77;;
24034;SDS011;12242;50.952;4.678;2023-04-24T10:32:12;6.13;;;2.10;;
24034;SDS011;12242;50.952;4.678;2023-04-24T10:34:39;9.48;;;2.10;;
24034;SDS011;12242;50.952;4.678;2023-04-24T10:37:07;5.07;;;1.67;;
24034;SDS011;12242;50.952;4.678;2023-04-24T10:39:34;3.95;;;1.90;;
24034;SDS011;12242;50.952;4.678;2023-04-24T10:42:13;6.93;;;1.88;;
24034;SDS011;12242;50.952;4.678;2023-04-24T10:44:42;4.72;;;1.83;;
24034;SDS011;12242;50.952;4.678;2023-04-24T10:47:13;9.27;;;2.15;;
24034;SDS011;12242;50.952;4.678;2023-04-24T10:49:41;9.25;;;2.25;;
24034;SDS011;12242;50.952;4.678;2023-04-24T10:52:09;5.72;;;1.60;;
24034;SDS011;12242;50.952;4.678;2023-04-24T10:59:51;3.67;;;1.95;;
24034;SDS011;12242;50.952;4.678;2023-04-24T11:02:37;6.70;;;2.20;;
24034;SDS011;12242;50.952;4.678;2023-04-24T11:05:06;4.13;;;1.35;;
24034;SDS011;12242;50.952;4.678;2023-04-24T11:10:45;3.08;;;1.38;;
24034;SDS011;12242;50.952;4.678;2023-04-24T11:13:14;2.88;;;1.23;;
24034;SDS011;12242;50.952;4.678;2023-04-24T11:18:42;5.30;;;1.88;;
24034;SDS011;12242;50.952;4.678;2023-04-24T11:21:17;7.18;;;2.03;;
24034;SDS011;12242;50.952;4.678;2023-04-24T11:23:45;5.40;;;2.00;;
24034;SDS011;12242;50.952;4.678;2023-04-24T11:26:21;7.72;;;2.10;;
24034;SDS011;12242;50.952;4.678;2023-04-24T11:29:05;9.73;;;1.90;;
24034;SDS011;12242;50.952;4.678;2023-04-24T11:31:35;4.90;;;1.83;;
24034;SDS011;12242;50.952;4.678;2023-04-24T11:34:17;5.10;;;1.80;;
24034;SDS011;12242;50.952;4.678;2023-04-24T11:36:45;7.55;;;1.63;;
24034;SDS011;12242;50.952;4.678;2023-04-24T11:39:14;8.32;;;1.80;;
24034;SDS011;12242;50.952;4.678;2023-04-24T11:41:42;7.00;;;2.00;;
24034;SDS011;12242;50.952;4.678;2023-04-24T11:44:09;8.18;;;1.92;;
24034;SDS011;12242;50.952;4.678;2023-04-24T11:46:38;4.20;;;1.90;;
24034;SDS011;12242;50.952;4.678;2023-04-24T11:49:07;3.85;;;1.95;;
24034;SDS011;12242;50.952;4.678;2023-04-24T11:51:35;6.95;;;2.22;;
24034;SDS011;12242;50.952;4.678;2023-04-24T11:54:19;6.30;;;1.65;;
24034;SDS011;12242;50.952;4.678;2023-04-24T11:56:47;4.28;;;1.58;;
24034;SDS011;12242;50.952;4.678;2023-04-24T11:59:14;4.05;;;1.60;;
24034;SDS011;12242;50.952;4.678;2023-04-24T12:01:43;5.90;;;1.60;;
24034;SDS011;12242;50.952;4.678;2023-04-24T12:04:15;8.30;;;2.00;;
24034;SDS011;12242;50.952;4.678;2023-04-24T12:07:00;5.43;;;1.70;;
24034;SDS011;12242;50.952;4.678;2023-04-24T12:12:14;4.57;;;1.70;;
24034;SDS011;12242;50.952;4.678;2023-04-24T12:17:32;6.38;;;1.92;;
24034;SDS011;12242;50.952;4.678;2023-04-24T12:20:04;8.77;;;1.80;;
24034;SDS011;12242;50.952;4.678;2023-04-24T12:22:43;6.63;;;1.70;;
24034;SDS011;12242;50.952;4.678;2023-04-24T12:25:12;4.03;;;1.63;;
24034;SDS011;12242;50.952;4.678;2023-04-24T12:27:41;5.72;;;1.90;;
24034;SDS011;12242;50.952;4.678;2023-04-24T12:30:10;3.85;;;1.80;;
24034;SDS011;12242;50.952;4.678;2023-04-24T12:32:42;7.55;;;1.98;;
24034;SDS011;12242;50.952;4.678;2023-04-24T12:35:10;4.35;;;1.90;;
24034;SDS011;12242;50.952;4.678;2023-04-24T12:37:38;5.00;;;1.77;;
24034;SDS011;12242;50.952;4.678;2023-04-24T12:40:13;6.07;;;2.00;;
24034;SDS011;12242;50.952;4.678;2023-04-24T12:42:48;7.53;;;2.00;;
24034;SDS011;12242;50.952;4.678;2023-04-24T12:45:18;4.18;;;1.95;;
24034;SDS011;12242;50.952;4.678;2023-04-24T12:47:46;6.53;;;1.80;;
24034;SDS011;12242;50.952;4.678;2023-04-24T12:50:15;5.68;;;1.90;;
24034;SDS011;12242;50.952;4.678;2023-04-24T12:52:43;5.18;;;2.03;;
24034;SDS011;12242;50.952;4.678;2023-04-24T12:55:11;4.75;;;2.00;;
24034;SDS011;12242;50.952;4.678;2023-04-24T12:57:39;7.07;;;2.40;;
24034;SDS011;12242;50.952;4.678;2023-04-24T13:00:07;7.88;;;2.13;;
24034;SDS011;12242;50.952;4.678;2023-04-24T13:02:35;4.82;;;1.73;;
24034;SDS011;12242;50.952;4.678;2023-04-24T13:05:03;4.63;;;1.67;;
24034;SDS011;12242;50.952;4.678;2023-04-24T13:07:32;5.63;;;1.65;;
24034;SDS011;12242;50.952;4.678;2023-04-24T13:10:00;3.70;;;1.50;;
24034;SDS011;12242;50.952;4.678;2023-04-24T13:12:27;4.20;;;1.80;;
24034;SDS011;12242;50.952;4.678;2023-04-24T13:14:55;8.93;;;1.60;;
24034;SDS011;12242;50.952;4.678;2023-04-24T13:17:22;3.58;;;1.48;;
24034;SDS011;12242;50.952;4.678;2023-04-24T13:19:50;6.40;;;1.70;;
24034;SDS011;12242;50.952;4.678;2023-04-24T13:22:18;5.63;;;1.55;;
24034;SDS011;12242;50.952;4.678;2023-04-24T13:24:46;6.50;;;2.10;;
24034;SDS011;12242;50.952;4.678;2023-04-24T13:27:15;5.07;;;1.85;;
24034;SDS011;12242;50.952;4.678;2023-04-24T13:29:43;5.55;;;1.60;;
24034;SDS011;12242;50.952;4.678;2023-04-24T13:32:11;4.22;;;1.40;;
24034;SDS011;12242;50.952;4.678;2023-04-24T13:34:39;3.30;;;1.50;;
24034;SDS011;12242;50.952;4.678;2023-04-24T13:37:07;4.63;;;1.60;;
24034;SDS011;12242;50.952;4.678;2023-04-24T13:39:35;4.53;;;1.85;;
24034;SDS011;12242;50.952;4.678;2023-04-24T13:42:02;4.07;;;1.70;;
24034;SDS011;12242;50.952;4.678;2023-04-24T13:44:31;4.35;;;1.38;;
24034;SDS011;12242;50.952;4.678;2023-04-24T13:46:58;4.78;;;1.50;;
24034;SDS011;12242;50.952;4.678;2023-04-24T13:49:26;5.28;;;1.40;;
24034;SDS011;12242;50.952;4.678;2023-04-24T13:51:55;2.33;;;1.15;;
24034;SDS011;12242;50.952;4.678;2023-04-24T13:54:23;7.32;;;1.55;;
24034;SDS011;12242;50.952;4.678;2023-04-24T13:56:52;5.30;;;1.50;;
24034;SDS011;12242;50.952;4.678;2023-04-24T13:59:23;4.20;;;1.30;;
24034;SDS011;12242;50.952;4.678;2023-04-24T14:01:51;3.33;;;1.15;;
24034;SDS011;12242;50.952;4.678;2023-04-24T14:04:18;2.72;;;1.20;;
24034;SDS011;12242;50.952;4.678;2023-04-24T14:06:47;3.10;;;1.13;;
24034;SDS011;12242;50.952;4.678;2023-04-24T14:09:14;4.85;;;2.38;;
24034;SDS011;12242;50.952;4.678;2023-04-24T14:11:42;3.88;;;1.40;;
24034;SDS011;12242;50.952;4.678;2023-04-24T14:14:10;4.38;;;1.70;;
24034;SDS011;12242;50.952;4.678;2023-04-24T14:16:38;3.90;;;1.25;;
24034;SDS011;12242;50.952;4.678;2023-04-24T14:19:06;4.30;;;1.58;;
24034;SDS011;12242;50.952;4.678;2023-04-24T14:21:34;5.00;;;1.38;;
24034;SDS011;12242;50.952;4.678;2023-04-24T14:24:01;2.88;;;1.20;;
24034;SDS011;12242;50.952;4.678;2023-04-24T14:26:29;4.78;;;1.40;;
24034;SDS011;12242;50.952;4.678;2023-04-24T14:28:57;6.28;;;1.52;;
24034;SDS011;12242;50.952;4.678;2023-04-24T14:31:40;3.90;;;1.50;;
24034;SDS011;12242;50.952;4.678;2023-04-24T14:34:08;4.38;;;1.73;;
24034;SDS011;12242;50.952;4.678;2023-04-24T14:36:36;2.97;;;1.45;;
24034;SDS011;12242;50.952;4.678;2023-04-24T14:39:03;4.15;;;1.27;;
24034;SDS011;12242;50.952;4.678;2023-04-24T14:41:34;5.28;;;1.48;;
24034;SDS011;12242;50.952;4.678;2023-04-24T14:44:03;4.13;;;1.58;;
24034;SDS011;12242;50.952;4.678;2023-04-24T14:46:31;7.45;;;1.40;;
24034;SDS011;12242;50.952;4.678;2023-04-24T14:48:59;3.70;;;1.23;;
24034;SDS011;12242;50.952;4.678;2023-04-24T14:51:27;3.65;;;1.60;;
24034;SDS011;12242;50.952;4.678;2023-04-24T14:53:54;4.25;;;1.50;;
24034;SDS011;12242;50.952;4.678;2023-04-24T14:56:23;3.65;;;1.33;;
24034;SDS011;12242;50.952;4.678;2023-04-24T14:58:51;3.67;;;1.60;;
24034;SDS011;12242;50.952;4.678;2023-04-24T15:01:19;2.80;;;1.38;;
24034;SDS011;12242;50.952;4.678;2023-04-24T15:03:47;3.15;;;1.17;;
24034;SDS011;12242;50.952;4.678;2023-04-24T15:06:15;4.10;;;1.27;;
24034;SDS011;12242;50.952;4.678;2023-04-24T15:08:43;5.28;;;1.45;;